createdAt,value
2022-10-07T00:00:16.894Z,99402.09
2022-10-07T00:02:45.418Z,99404.72
2022-10-07T00:05:15.608Z,99402.53
2022-10-07T00:07:44.365Z,99403.31
2022-10-07T00:10:13.720Z,99402.66
2022-10-07T00:12:42.880Z,99395.94
2022-10-07T00:15:12.709Z,99390.72
2022-10-07T00:17:42.575Z,99387.28
2022-10-07T00:20:11.509Z,99383.03
2022-10-07T00:22:42.126Z,99382.22
2022-10-07T00:25:11.422Z,99380.44
2022-10-07T00:27:39.856Z,99384.41
2022-10-07T00:30:10.760Z,99379.34
2022-10-07T00:32:39.181Z,99384.69
2022-10-07T00:35:09.552Z,99370.28
2022-10-07T00:37:43.218Z,99367.00
2022-10-07T00:40:16.681Z,99368.78
2022-10-07T00:42:45.182Z,99365.38
2022-10-07T00:45:17.464Z,99359.72
2022-10-07T00:47:50.030Z,99362.19
2022-10-07T00:50:27.391Z,99358.91
2022-10-07T00:53:01.621Z,99357.53
2022-10-07T00:55:35.358Z,99354.25
2022-10-07T00:58:09.470Z,99348.63
2022-10-07T01:00:38.383Z,99352.19
2022-10-07T01:03:07.070Z,99349.31
2022-10-07T01:05:35.992Z,99349.44
2022-10-07T01:08:06.155Z,99340.41
2022-10-07T01:10:56.249Z,99337.25
2022-10-07T01:13:34.718Z,99327.13
2022-10-07T01:16:14.804Z,99333.13
2022-10-07T01:18:54.793Z,99332.16
2022-10-07T01:21:40.183Z,99327.91
2022-10-07T01:24:33.347Z,99321.88
2022-10-07T01:27:07.185Z,99323.53
2022-10-07T01:29:41.593Z,99318.31
2022-10-07T01:32:18.101Z,99319.53
2022-10-07T01:34:52.241Z,99311.06
2022-10-07T01:37:27.780Z,99308.47
2022-10-07T01:40:06.163Z,99306.13
2022-10-07T01:42:37.564Z,99296.97
2022-10-07T01:45:11.368Z,99305.03
2022-10-07T01:47:41.598Z,99295.84
2022-10-07T01:50:14.663Z,99293.91
2022-10-07T01:53:03.665Z,99291.47
2022-10-07T01:55:52.830Z,99294.06
2022-10-07T01:58:46.495Z,99289.16
2022-10-07T02:01:24.839Z,99282.56
2022-10-07T02:04:23.572Z,99282.00
2022-10-07T02:07:03.878Z,99277.63
2022-10-07T02:09:39.116Z,99272.28
2022-10-07T02:12:16.687Z,99270.66
2022-10-07T02:14:55.088Z,99273.66
2022-10-07T02:17:28.602Z,99267.34
2022-10-07T02:19:59.797Z,99267.91
2022-10-07T02:22:33.005Z,99261.59
2022-10-07T02:25:02.519Z,99263.47
2022-10-07T02:27:38.393Z,99253.34
2022-10-07T02:30:16.715Z,99242.41
2022-10-07T02:32:53.394Z,99247.56
2022-10-07T02:35:30.589Z,99242.34
2022-10-07T02:38:06.820Z,99242.09
2022-10-07T02:40:43.120Z,99240.44
2022-10-07T02:43:29.838Z,99241.25
2022-10-07T02:46:08.993Z,99242.91
2022-10-07T02:48:46.176Z,99239.94
2022-10-07T02:51:28.156Z,99242.38
2022-10-07T02:53:59.849Z,99244.31
2022-10-07T02:56:29.980Z,99236.06
2022-10-07T02:59:01.516Z,99228.97
2022-10-07T03:01:40.628Z,99222.13
2022-10-07T03:04:09.725Z,99228.41
2022-10-07T03:06:38.759Z,99234.13
2022-10-07T03:09:07.908Z,99238.09
2022-10-07T03:11:39.311Z,99235.47
2022-10-07T03:14:08.196Z,99230.28
2022-10-07T03:16:39.728Z,99226.56
2022-10-07T03:19:08.150Z,99222.84
2022-10-07T03:21:36.572Z,99220.00
2022-10-07T03:24:06.453Z,99221.91
2022-10-07T03:26:37.176Z,99220.94
2022-10-07T03:29:07.290Z,99218.47
2022-10-07T03:31:38.176Z,99212.47
2022-10-07T03:34:14.169Z,99213.00
2022-10-07T03:36:42.842Z,99219.81
2022-10-07T03:39:11.292Z,99216.28
2022-10-07T03:41:40.464Z,99212.03
2022-10-07T03:44:08.942Z,99199.28
2022-10-07T03:46:39.713Z,99208.06
2022-10-07T03:49:08.541Z,99196.13
2022-10-07T03:51:37.202Z,99199.53
2022-10-07T03:54:06.737Z,99196.56
2022-10-07T03:56:35.490Z,99196.81
2022-10-07T03:59:04.073Z,99203.63
2022-10-07T04:01:32.829Z,99200.47
2022-10-07T04:04:03.304Z,99210.44
2022-10-07T04:06:33.049Z,99200.63
2022-10-07T04:09:03.555Z,99195.44
2022-10-07T04:11:32.768Z,99197.88
2022-10-07T04:14:02.764Z,99196.19
2022-10-07T04:16:37.945Z,99187.03
2022-10-07T04:19:08.145Z,99190.31
2022-10-07T04:21:36.638Z,99187.47
2022-10-07T04:24:06.599Z,99190.13
2022-10-07T04:26:36.513Z,99189.81
2022-10-07T04:29:04.955Z,99188.97
2022-10-07T04:31:33.556Z,99187.34
2022-10-07T04:34:02.668Z,99179.56
2022-10-07T04:36:33.801Z,99187.34
2022-10-07T04:39:02.299Z,99178.28
2022-10-07T04:41:31.366Z,99182.19
2022-10-07T04:44:01.038Z,99180.16
2022-10-07T04:46:29.515Z,99170.69
2022-10-07T04:48:58.796Z,99174.56
2022-10-07T04:51:27.450Z,99166.13
2022-10-07T04:53:58.077Z,99164.56
2022-10-07T04:56:28.406Z,99168.25
2022-10-07T04:58:57.410Z,99164.19
2022-10-07T05:01:26.591Z,99156.41
2022-10-07T05:03:55.236Z,99160.63
2022-10-07T05:06:24.930Z,99159.06
2022-10-07T05:08:54.355Z,99166.06
2022-10-07T05:11:26.056Z,99161.81
2022-10-07T05:13:54.813Z,99161.50
2022-10-07T05:16:23.390Z,99158.19
2022-10-07T05:18:52.422Z,99156.78
2022-10-07T05:21:21.642Z,99155.28
2022-10-07T05:23:51.177Z,99153.63
2022-10-07T05:26:20.299Z,99149.53
2022-10-07T05:28:50.107Z,99152.25
2022-10-07T05:31:18.646Z,99151.44
2022-10-07T05:33:52.171Z,99156.88
2022-10-07T05:36:21.107Z,99155.84
2022-10-07T05:38:49.739Z,99150.78
2022-10-07T05:41:20.394Z,99149.72
2022-10-07T05:43:50.279Z,99145.22
2022-10-07T05:46:22.025Z,99147.50
2022-10-07T05:48:53.039Z,99145.84
2022-10-07T05:51:24.238Z,99145.63
2022-10-07T05:53:57.676Z,99145.38
2022-10-07T05:56:26.687Z,99140.91
2022-10-07T05:58:57.375Z,99135.88
2022-10-07T06:01:28.435Z,99132.19
2022-10-07T06:03:58.798Z,99140.44
2022-10-07T06:06:30.151Z,99137.84
2022-10-07T06:09:18.867Z,99138.88
2022-10-07T06:12:05.578Z,99132.44
2022-10-07T06:14:35.654Z,99131.94
2022-10-07T06:17:04.846Z,99129.09
2022-10-07T06:19:33.347Z,99125.81
2022-10-07T06:22:02.872Z,99128.03
2022-10-07T06:24:33.897Z,99126.25
2022-10-07T06:27:02.373Z,99124.38
2022-10-07T06:29:31.416Z,99121.06
2022-10-07T06:32:01.378Z,99118.94
2022-10-07T06:34:30.921Z,99120.59
2022-10-07T06:37:00.043Z,99129.97
2022-10-07T06:39:28.538Z,99127.03
2022-10-07T06:41:57.199Z,99133.03
2022-10-07T06:44:25.776Z,99132.09
2022-10-07T06:46:54.187Z,99134.69
2022-10-07T06:49:24.781Z,99137.03
2022-10-07T06:51:53.280Z,99133.91
2022-10-07T06:54:21.734Z,99137.91
2022-10-07T06:56:50.986Z,99127.53
2022-10-07T06:59:19.508Z,99134.38
2022-10-07T07:01:48.542Z,99140.25
2022-10-07T07:04:17.109Z,99132.19
2022-10-07T07:06:47.545Z,99121.81
2022-10-07T07:09:16.021Z,99119.22
2022-10-07T07:11:45.452Z,99125.81
2022-10-07T07:14:14.832Z,99120.38
2022-10-07T07:16:44.024Z,99122.44
2022-10-07T07:19:14.706Z,99117.50
2022-10-07T07:21:46.493Z,99114.81
2022-10-07T07:24:18.257Z,99108.16
2022-10-07T07:26:46.753Z,99109.41
2022-10-07T07:29:16.557Z,99110.78
2022-10-07T07:31:45.257Z,99113.00
2022-10-07T07:34:15.658Z,99106.56
2022-10-07T07:36:48.861Z,99102.91
2022-10-07T07:39:20.276Z,99114.91
2022-10-07T07:41:50.998Z,99110.28
2022-10-07T07:44:21.061Z,99099.72
2022-10-07T07:46:52.159Z,99102.72
2022-10-07T07:49:23.685Z,99098.78
2022-10-07T07:51:53.476Z,99100.03
2022-10-07T07:54:25.028Z,99091.84
2022-10-07T07:56:54.244Z,99088.72
2022-10-07T07:59:24.374Z,99094.31
2022-10-07T08:01:53.013Z,99087.78
2022-10-07T08:04:21.588Z,99079.56
2022-10-07T08:06:50.105Z,99084.53
2022-10-07T08:09:18.628Z,99085.88
2022-10-07T08:11:48.738Z,99080.44
2022-10-07T08:14:18.464Z,99083.41
2022-10-07T08:16:48.746Z,99080.28
2022-10-07T08:19:18.109Z,99070.97
2022-10-07T08:21:46.601Z,99073.06
2022-10-07T08:24:15.206Z,99068.25
2022-10-07T08:26:43.737Z,99065.94
2022-10-07T08:29:15.267Z,99070.72
2022-10-07T08:31:44.009Z,99067.56
2022-10-07T08:34:13.217Z,99073.72
2022-10-07T08:36:44.281Z,99074.00
2022-10-07T08:39:13.312Z,99063.19
2022-10-07T08:42:02.624Z,99068.63
2022-10-07T08:44:38.638Z,99059.31
2022-10-07T08:47:18.571Z,99058.75
2022-10-07T08:50:04.474Z,99048.47
2022-10-07T08:52:47.935Z,99049.50
2022-10-07T08:55:24.280Z,99041.97
2022-10-07T08:58:27.001Z,99034.41
2022-10-07T09:01:08.439Z,99031.91
2022-10-07T09:03:50.196Z,99028.75
2022-10-07T09:06:33.619Z,99028.97
2022-10-07T09:09:12.569Z,99023.72
2022-10-07T09:11:45.354Z,99023.94
2022-10-07T09:14:29.129Z,99017.06
2022-10-07T09:17:08.987Z,99016.47
2022-10-07T09:19:46.535Z,99019.31
2022-10-07T09:22:22.096Z,99010.06
2022-10-07T09:24:56.821Z,99019.63
2022-10-07T09:27:26.910Z,99005.88
2022-10-07T09:29:55.534Z,99008.72
2022-10-07T09:32:25.475Z,99008.75
2022-10-07T09:34:54.561Z,99001.31
2022-10-07T09:37:26.681Z,99003.19
2022-10-07T09:39:58.436Z,98996.53
2022-10-07T09:42:35.677Z,98989.63
2022-10-07T09:45:20.553Z,98977.44
2022-10-07T09:47:55.305Z,98988.56
2022-10-07T09:50:38.328Z,98981.63
2022-10-07T09:53:19.366Z,98978.25
2022-10-07T09:55:48.070Z,98981.72
2022-10-07T09:58:25.576Z,98976.56
2022-10-07T10:00:57.911Z,98986.06
2022-10-07T10:03:35.231Z,98975.47
2022-10-07T10:06:09.436Z,98975.22
2022-10-07T10:08:41.202Z,98973.59
2022-10-07T10:11:28.492Z,98966.63
2022-10-07T10:13:57.179Z,98968.28
2022-10-07T10:16:36.311Z,98964.22
2022-10-07T10:19:23.865Z,98959.66
2022-10-07T10:21:56.276Z,98951.56
2022-10-07T10:24:40.703Z,98947.81
2022-10-07T10:27:15.058Z,98940.31
2022-10-07T10:29:58.383Z,98937.31
2022-10-07T10:33:11.143Z,98928.31
2022-10-07T10:35:55.951Z,98919.91
2022-10-07T10:38:41.161Z,98919.72
2022-10-07T10:41:27.710Z,98915.91
2022-10-07T10:44:20.478Z,98906.50
2022-10-07T10:47:02.912Z,98907.44
2022-10-07T10:49:41.653Z,98900.06
2022-10-07T10:52:46.052Z,98901.63
2022-10-07T10:56:07.365Z,98887.56
2022-10-07T10:58:55.644Z,98884.19
2022-10-07T11:01:36.613Z,98871.47
2022-10-07T11:04:31.833Z,98863.53
2022-10-07T11:07:09.380Z,98869.88
2022-10-07T11:09:46.858Z,98861.13
2022-10-07T11:12:26.590Z,98853.38
2022-10-07T11:15:02.142Z,98853.31
2022-10-07T11:17:37.687Z,98849.13
2022-10-07T11:20:20.493Z,98845.47
2022-10-07T11:22:57.425Z,98830.78
2022-10-07T11:25:37.646Z,98822.03
2022-10-07T11:28:18.254Z,98821.94
2022-10-07T11:31:01.020Z,98819.78
2022-10-07T11:33:43.337Z,98817.41
2022-10-07T11:36:19.877Z,98810.88
2022-10-07T11:38:52.547Z,98811.16
2022-10-07T11:41:32.814Z,98804.34
2022-10-07T11:44:09.748Z,98803.34
2022-10-07T11:46:46.231Z,98797.59
2022-10-07T11:49:22.665Z,98789.84
2022-10-07T11:52:00.766Z,98779.50
2022-10-07T11:54:41.867Z,98773.47
2022-10-07T11:57:22.916Z,98776.44
2022-10-07T12:00:00.281Z,98761.72
2022-10-07T12:02:53.721Z,98753.91
2022-10-07T12:05:59.819Z,98744.03
2022-10-07T12:08:34.189Z,98744.91
2022-10-07T12:11:48.572Z,98734.47
2022-10-07T12:14:44.939Z,98731.44
2022-10-07T12:17:24.152Z,98728.44
2022-10-07T12:20:46.757Z,98716.31
2022-10-07T12:24:10.102Z,98708.47
2022-10-07T12:26:50.057Z,98701.81
2022-10-07T12:29:27.647Z,98701.25
2022-10-07T12:31:57.939Z,98705.75
2022-10-07T12:34:43.404Z,98704.19
2022-10-07T12:37:50.482Z,98700.16
2022-10-07T12:40:28.612Z,98692.66
2022-10-07T12:43:10.922Z,98692.06
2022-10-07T12:45:44.361Z,98687.44
2022-10-07T12:48:21.672Z,98680.78
2022-10-07T12:50:56.415Z,98676.34
2022-10-07T12:53:30.621Z,98665.81
2022-10-07T12:55:59.675Z,98665.84
2022-10-07T12:59:22.501Z,98669.50
2022-10-07T13:02:42.633Z,98660.97
2022-10-07T13:06:10.706Z,98655.72
2022-10-07T13:09:31.688Z,98649.25
2022-10-07T13:12:33.127Z,98633.84
2022-10-07T13:15:35.349Z,98639.09
2022-10-07T13:18:16.757Z,98637.50
2022-10-07T13:21:06.843Z,98642.34
2022-10-07T13:23:36.184Z,98628.75
2022-10-07T13:26:06.699Z,98625.31
2022-10-07T13:28:46.559Z,98624.94
2022-10-07T13:31:21.612Z,98617.41
2022-10-07T13:33:51.998Z,98614.78
2022-10-07T13:36:24.886Z,98601.38
2022-10-07T13:38:55.672Z,98602.19
2022-10-07T13:41:28.942Z,98604.81
2022-10-07T13:44:03.627Z,98597.13
2022-10-07T13:46:37.353Z,98595.44
2022-10-07T13:49:06.573Z,98585.50
2022-10-07T13:51:38.797Z,98587.84
2022-10-07T13:54:20.408Z,98585.53
2022-10-07T13:56:50.568Z,98581.56
2022-10-07T13:59:22.086Z,98581.97
2022-10-07T14:01:53.178Z,98577.56
2022-10-07T14:04:26.831Z,98569.47
2022-10-07T14:07:02.030Z,98562.78
2022-10-07T14:09:50.058Z,98558.81
2022-10-07T14:12:25.945Z,98558.59
2022-10-07T14:15:03.289Z,98552.28
2022-10-07T14:17:42.117Z,98550.88
2022-10-07T14:20:22.629Z,98540.31
2022-10-07T14:22:54.618Z,98543.22
2022-10-07T14:25:28.706Z,98543.16
2022-10-07T14:28:18.781Z,98544.78
2022-10-07T14:31:26.185Z,98533.75
2022-10-07T14:34:23.663Z,98535.66
2022-10-07T14:37:09.271Z,98538.91
2022-10-07T14:39:40.107Z,98528.34
2022-10-07T14:42:16.494Z,98535.47
2022-10-07T14:44:45.920Z,98526.88
2022-10-07T14:47:17.764Z,98529.56
2022-10-07T14:49:47.907Z,98529.16
2022-10-07T14:52:28.249Z,98523.03
2022-10-07T14:54:59.332Z,98516.69
2022-10-07T14:57:27.997Z,98520.22
2022-10-07T14:59:56.529Z,98512.28
2022-10-07T15:02:25.110Z,98522.31
2022-10-07T15:04:54.977Z,98519.28
2022-10-07T15:07:23.728Z,98520.38
2022-10-07T15:09:52.755Z,98513.03
2022-10-07T15:12:21.395Z,98516.41
2022-10-07T15:14:49.958Z,98510.53
2022-10-07T15:17:18.584Z,98510.66
2022-10-07T15:19:47.887Z,98509.81
2022-10-07T15:22:18.210Z,98509.66
2022-10-07T15:24:47.983Z,98499.88
2022-10-07T15:27:19.333Z,98504.69
2022-10-07T15:29:47.958Z,98505.69
2022-10-07T15:32:16.632Z,98499.22
2022-10-07T15:34:46.115Z,98493.78
2022-10-07T15:37:15.882Z,98492.81
2022-10-07T15:39:45.997Z,98496.78
2022-10-07T15:42:15.573Z,98491.84
2022-10-07T15:44:45.696Z,98492.53
2022-10-07T15:47:17.717Z,98500.97
2022-10-07T15:49:49.116Z,98484.44
2022-10-07T15:52:17.927Z,98480.81
2022-10-07T15:54:47.828Z,98494.13
2022-10-07T15:57:16.379Z,98501.13
2022-10-07T15:59:45.743Z,98491.59
2022-10-07T16:02:17.076Z,98491.66
2022-10-07T16:04:47.399Z,98495.56
2022-10-07T16:07:16.924Z,98486.88
2022-10-07T16:09:48.114Z,98482.88
2022-10-07T16:12:17.029Z,98482.91
2022-10-07T16:14:47.424Z,98476.44
2022-10-07T16:17:15.933Z,98474.84
2022-10-07T16:19:45.363Z,98477.53
2022-10-07T16:22:15.033Z,98480.81
2022-10-07T16:24:43.611Z,98478.00
2022-10-07T16:27:13.775Z,98473.59
2022-10-07T16:29:59.740Z,98474.81
2022-10-07T16:32:28.179Z,98470.81
2022-10-07T16:34:58.098Z,98467.38
2022-10-07T16:37:26.754Z,98470.22
2022-10-07T16:39:56.392Z,98484.66
2022-10-07T16:42:28.910Z,98485.84
2022-10-07T16:44:57.525Z,98488.31
2022-10-07T16:47:26.089Z,98496.81
2022-10-07T16:49:57.149Z,98496.81
2022-10-07T16:52:26.313Z,98490.34
2022-10-07T16:54:55.224Z,98486.72
2022-10-07T16:57:25.236Z,98482.66
2022-10-07T16:59:57.706Z,98481.06
2022-10-07T17:02:26.963Z,98484.69
2022-10-07T17:04:55.524Z,98484.28
2022-10-07T17:07:24.485Z,98484.88
2022-10-07T17:09:53.040Z,98486.69
2022-10-07T17:12:21.960Z,98491.38
2022-10-07T17:14:52.348Z,98492.78
2022-10-07T17:17:22.059Z,98490.94
2022-10-07T17:19:51.053Z,98492.34
2022-10-07T17:22:22.404Z,98497.81
2022-10-07T17:24:51.022Z,98501.00
2022-10-07T17:27:20.587Z,98504.44
2022-10-07T17:29:51.129Z,98500.16
2022-10-07T17:32:19.685Z,98508.84
2022-10-07T17:34:48.702Z,98505.63
2022-10-07T17:37:17.913Z,98496.69
2022-10-07T17:39:47.794Z,98493.88
2022-10-07T17:42:16.384Z,98495.44
2022-10-07T17:44:46.729Z,98496.63
2022-10-07T17:47:16.615Z,98496.00
2022-10-07T17:49:45.306Z,98500.22
2022-10-07T17:52:14.426Z,98495.53
2022-10-07T17:54:42.985Z,98500.16
2022-10-07T17:57:11.461Z,98499.31
2022-10-07T17:59:39.983Z,98501.72
2022-10-07T18:02:10.477Z,98505.94
2022-10-07T18:04:40.622Z,98504.31
2022-10-07T18:07:09.174Z,98499.44
2022-10-07T18:09:40.034Z,98495.56
2022-10-07T18:12:25.912Z,98498.84
2022-10-07T18:15:11.966Z,98506.06
2022-10-07T18:17:40.807Z,98502.25
2022-10-07T18:20:15.131Z,98497.97
2022-10-07T18:22:44.749Z,98499.38
2022-10-07T18:25:13.455Z,98506.63
2022-10-07T18:27:44.034Z,98497.53
2022-10-07T18:30:14.923Z,98499.94
2022-10-07T18:32:43.462Z,98493.44
2022-10-07T18:35:13.475Z,98498.22
2022-10-07T18:37:41.897Z,98487.66
2022-10-07T18:40:11.662Z,98496.13
2022-10-07T18:42:41.874Z,98499.16
2022-10-07T18:45:11.281Z,98486.47
2022-10-07T18:47:39.814Z,98492.72
2022-10-07T18:50:09.524Z,98490.28
2022-10-07T18:52:40.237Z,98492.03
2022-10-07T18:55:09.857Z,98488.97
2022-10-07T18:57:38.367Z,98483.50
2022-10-07T19:00:09.124Z,98487.50
2022-10-07T19:02:38.393Z,98482.25
2022-10-07T19:05:07.596Z,98487.63
2022-10-07T19:07:36.350Z,98484.53
2022-10-07T19:10:07.687Z,98480.00
2022-10-07T19:12:53.613Z,98476.50
2022-10-07T19:15:22.199Z,98476.66
2022-10-07T19:17:50.689Z,98486.94
2022-10-07T19:20:19.501Z,98487.91
2022-10-07T19:22:48.927Z,98484.69
2022-10-07T19:25:36.078Z,98480.59
2022-10-07T19:28:07.646Z,98479.56
2022-10-07T19:30:37.660Z,98478.13
2022-10-07T19:33:07.438Z,98481.66
2022-10-07T19:35:36.213Z,98475.88
2022-10-07T19:38:06.114Z,98474.03
2022-10-07T19:40:41.784Z,98470.19
2022-10-07T19:43:11.647Z,98479.97
2022-10-07T19:45:42.345Z,98476.91
2022-10-07T19:48:14.815Z,98475.28
2022-10-07T19:50:47.324Z,98474.66
2022-10-07T19:53:16.776Z,98472.72
2022-10-07T19:55:46.933Z,98473.81
2022-10-07T19:58:15.933Z,98474.56
2022-10-07T20:00:44.847Z,98473.19
2022-10-07T20:03:13.513Z,98465.13
2022-10-07T20:05:42.189Z,98469.38
2022-10-07T20:08:13.509Z,98463.16
2022-10-07T20:10:42.060Z,98457.91
2022-10-07T20:13:12.080Z,98460.63
2022-10-07T20:15:41.184Z,98446.28
2022-10-07T20:18:10.002Z,98449.59
2022-10-07T20:20:38.401Z,98451.69
2022-10-07T20:23:06.877Z,98454.13
2022-10-07T20:25:35.333Z,98453.84
2022-10-07T20:28:03.853Z,98456.47
2022-10-07T20:30:36.640Z,98455.47
2022-10-07T20:33:06.452Z,98458.06
2022-10-07T20:35:36.109Z,98455.22
2022-10-07T20:38:04.588Z,98449.09
2022-10-07T20:40:50.907Z,98456.56
2022-10-07T20:43:19.458Z,98453.94
2022-10-07T20:45:59.718Z,98454.69
2022-10-07T20:48:31.757Z,98446.19
2022-10-07T20:51:08.374Z,98442.50
2022-10-07T20:53:37.083Z,98453.16
2022-10-07T20:56:06.212Z,98439.88
2022-10-07T20:58:35.114Z,98438.00
2022-10-07T21:01:12.607Z,98449.19
2022-10-07T21:03:41.603Z,98438.38
2022-10-07T21:06:11.087Z,98439.97
2022-10-07T21:08:40.770Z,98444.59
2022-10-07T21:11:09.272Z,98447.56
2022-10-07T21:13:38.615Z,98436.22
2022-10-07T21:16:09.067Z,98442.41
2022-10-07T21:18:38.795Z,98451.91
2022-10-07T21:21:07.929Z,98449.91
2022-10-07T21:23:36.450Z,98442.41
2022-10-07T21:26:07.314Z,98446.59
2022-10-07T21:28:37.841Z,98438.91
2022-10-07T21:31:10.515Z,98439.72
2022-10-07T21:33:40.536Z,98436.13
2022-10-07T21:36:16.297Z,98435.31
2022-10-07T21:38:46.992Z,98438.09
2022-10-07T21:41:19.766Z,98436.47
2022-10-07T21:43:52.952Z,98438.44
2022-10-07T21:46:25.538Z,98433.41
2022-10-07T21:48:57.830Z,98439.09
2022-10-07T21:51:29.908Z,98431.25
2022-10-07T21:54:00.165Z,98439.47
2022-10-07T21:56:32.218Z,98440.97
2022-10-07T21:59:03.828Z,98438.34
2022-10-07T22:01:34.457Z,98433.56
2022-10-07T22:04:04.818Z,98430.44
2022-10-07T22:06:52.262Z,98423.84
2022-10-07T22:09:21.524Z,98425.44
2022-10-07T22:11:51.725Z,98436.38
2022-10-07T22:14:20.384Z,98435.59
2022-10-07T22:16:50.838Z,98427.44
2022-10-07T22:19:19.500Z,98431.84
2022-10-07T22:21:48.703Z,98433.94
2022-10-07T22:24:17.242Z,98429.16
2022-10-07T22:26:48.218Z,98431.78
2022-10-07T22:29:19.701Z,98434.41
2022-10-07T22:31:50.134Z,98434.03
2022-10-07T22:34:35.550Z,98435.31
2022-10-07T22:37:05.246Z,98425.81
2022-10-07T22:39:34.450Z,98430.88
2022-10-07T22:42:04.314Z,98420.88
2022-10-07T22:44:33.424Z,98418.25
2022-10-07T22:47:05.157Z,98418.41
2022-10-07T22:49:34.041Z,98421.03
2022-10-07T22:52:02.719Z,98423.28
2022-10-07T22:54:31.342Z,98414.06
2022-10-07T22:57:00.570Z,98412.06
2022-10-07T22:59:28.971Z,98409.47
2022-10-07T23:01:57.436Z,98409.28
2022-10-07T23:04:27.272Z,98409.91
2022-10-07T23:06:56.105Z,98406.06
2022-10-07T23:09:24.538Z,98406.84
2022-10-07T23:11:52.992Z,98406.50
2022-10-07T23:14:21.583Z,98406.50
2022-10-07T23:16:50.132Z,98398.44
2022-10-07T23:19:18.680Z,98398.91
2022-10-07T23:21:49.849Z,98395.28
2022-10-07T23:24:18.997Z,98386.44
2022-10-07T23:26:47.421Z,98390.06
2022-10-07T23:29:16.020Z,98389.97
2022-10-07T23:31:45.445Z,98388.19
2022-10-07T23:34:14.230Z,98385.81
2022-10-07T23:36:43.210Z,98381.78
2022-10-07T23:39:13.604Z,98389.63
2022-10-07T23:41:42.310Z,98386.38
2022-10-07T23:44:11.881Z,98371.66
2022-10-07T23:46:41.205Z,98376.28
2022-10-07T23:49:09.744Z,98376.00
2022-10-07T23:51:39.161Z,98388.19
2022-10-07T23:54:08.141Z,98387.13
2022-10-07T23:56:39.139Z,98383.84
2022-10-07T23:59:08.906Z,98393.06
